Time;durP1;ratioP1;P1;durP2;ratioP2;P2;SDS_P1;SDS_P2;PMS_P1;PMS_P2;Temp;Humidity;BMP_temperature;BMP_pressure;BME280_temperature;BME280_humidity;BME280_pressure;Samples;Min_cycle;Max_cycle;Signal;HPM_P1;HPM_P2
2022/04/12 00:01:13;;;;;;;8.88;5.95;;;;;;;7.93;100.00;101554.03;5056742;28;20059;-79
2022/04/12 00:04:00;;;;;;;9.50;6.43;;;;;;;8.09;100.00;101560.19;5056923;28;20373;-76
2022/04/12 00:06:46;;;;;;;9.55;6.18;;;;;;;8.23;100.00;101554.22;5057872;28;20037;-76
2022/04/12 00:09:32;;;;;;;8.77;5.72;;;;;;;7.95;100.00;101548.78;5056741;28;20040;-77
2022/04/12 00:12:18;;;;;;;8.55;5.47;;;;;;;8.29;100.00;101556.00;5057792;28;20033;-76
2022/04/12 00:15:05;;;;;;;7.25;5.60;;;;;;;8.07;100.00;101552.34;5055961;28;20459;-76
2022/04/12 00:20:56;;;;;;;7.82;5.43;;;;;;;7.96;100.00;101561.00;5057256;28;20101;-77
2022/04/12 00:23:41;;;;;;;8.55;5.53;;;;;;;7.98;100.00;101557.53;5056782;28;20437;-77
2022/04/12 00:26:27;;;;;;;7.35;5.57;;;;;;;8.04;100.00;101552.31;5056049;28;20415;-76
2022/04/12 00:29:13;;;;;;;6.95;4.90;;;;;;;7.94;100.00;101560.09;5056741;28;20115;-77
2022/04/12 00:31:59;;;;;;;9.40;5.85;;;;;;;8.15;100.00;101558.50;5057029;28;20039;-77
2022/04/12 00:34:44;;;;;;;7.47;5.43;;;;;;;7.99;100.00;101558.38;5056067;28;20413;-76
2022/04/12 00:37:30;;;;;;;7.72;5.25;;;;;;;7.61;100.00;101562.47;5056670;28;20175;-77
2022/04/12 00:40:18;;;;;;;7.10;5.82;;;;;;;7.56;100.00;101552.00;5056802;28;20368;-77
2022/04/12 00:43:03;;;;;;;7.25;5.65;;;;;;;7.95;100.00;101564.44;5055393;28;20029;-77
2022/04/12 00:45:49;;;;;;;7.15;5.43;;;;;;;7.84;100.00;101555.69;5055799;28;20025;-76
2022/04/12 00:48:35;;;;;;;7.82;5.93;;;;;;;7.81;100.00;101560.88;5056838;28;20044;-77
2022/04/12 00:51:22;;;;;;;8.63;5.40;;;;;;;7.69;100.00;101558.19;5055894;28;20029;-77
2022/04/12 00:54:09;;;;;;;6.53;5.28;;;;;;;8.06;100.00;101568.00;5056196;28;20422;-75
2022/04/12 00:56:54;;;;;;;7.50;5.82;;;;;;;7.34;100.00;101572.66;5055538;28;20040;-76
2022/04/12 00:59:44;;;;;;;6.05;5.18;;;;;;;7.77;100.00;101572.16;5055886;28;20021;-75
2022/04/12 01:02:29;;;;;;;6.22;5.20;;;;;;;7.59;100.00;101570.28;5056606;28;20111;-76
2022/04/12 01:05:15;;;;;;;7.45;5.45;;;;;;;7.50;100.00;101559.78;5055903;28;20410;-76
2022/04/12 01:08:02;;;;;;;7.53;5.05;;;;;;;7.30;100.00;101561.34;5056268;28;20029;-76
2022/04/12 01:10:48;;;;;;;7.07;5.47;;;;;;;7.36;100.00;101563.13;5055977;28;20033;-75
2022/04/12 01:13:34;;;;;;;6.63;5.03;;;;;;;7.30;100.00;101561.34;5056713;28;20040;-75
2022/04/12 01:16:20;;;;;;;6.40;5.25;;;;;;;7.22;100.00;101562.09;5055874;28;20025;-76
2022/04/12 01:19:05;;;;;;;8.27;5.50;;;;;;;6.98;100.00;101557.53;5055920;28;20021;-76
2022/04/12 01:22:02;;;;;;;7.82;5.70;;;;;;;7.12;100.00;101562.91;5056571;28;20029;-77
2022/04/12 01:24:49;;;;;;;9.57;5.88;;;;;;;6.99;100.00;101563.63;5056856;28;20021;-77
2022/04/12 01:27:34;;;;;;;8.85;5.88;;;;;;;6.87;100.00;101568.72;5056095;28;20032;-75
2022/04/12 01:30:20;;;;;;;6.75;5.53;;;;;;;6.92;100.00;101567.03;5055015;28;20017;-75
2022/04/12 01:33:06;;;;;;;7.63;5.53;;;;;;;6.91;100.00;101560.94;5056290;28;20025;-75
2022/04/12 01:35:52;;;;;;;7.75;6.20;;;;;;;6.96;100.00;101564.47;5054758;28;20032;-76
2022/04/12 01:38:38;;;;;;;9.40;6.07;;;;;;;6.69;100.00;101563.28;5055436;28;20029;-77
2022/04/12 01:41:24;;;;;;;9.88;6.40;;;;;;;6.85;100.00;101560.88;5054945;28;20465;-77
2022/04/12 01:44:09;;;;;;;8.52;6.45;;;;;;;7.14;100.00;101555.94;5054358;28;20080;-77
2022/04/12 01:46:55;;;;;;;10.55;7.40;;;;;;;6.80;100.00;101559.06;5054479;28;20049;-76
2022/04/12 01:49:41;;;;;;;9.85;6.38;;;;;;;6.68;100.00;101562.44;5056125;28;20025;-76
2022/04/12 01:52:27;;;;;;;10.52;6.40;;;;;;;6.81;100.00;101566.91;5054842;28;20024;-77
2022/04/12 01:55:14;;;;;;;11.52;7.05;;;;;;;6.76;100.00;101560.78;5054474;28;20025;-77
2022/04/12 01:58:00;;;;;;;11.65;6.75;;;;;;;6.84;100.00;101558.25;5055193;28;20124;-76
2022/04/12 02:00:45;;;;;;;9.98;6.20;;;;;;;6.87;100.00;101550.47;5055765;28;20067;-77
2022/04/12 02:03:31;;;;;;;10.05;6.85;;;;;;;6.67;100.00;101558.06;5054022;28;20024;-76
2022/04/12 02:06:17;;;;;;;9.48;6.88;;;;;;;6.52;100.00;101555.28;5054852;28;20017;-77
2022/04/12 02:09:02;;;;;;;14.05;7.35;;;;;;;6.53;100.00;101571.75;5055492;28;20028;-76
2022/04/12 02:11:48;;;;;;;9.75;6.63;;;;;;;6.61;100.00;101567.53;5055367;28;20020;-77
2022/04/12 02:14:34;;;;;;;10.57;7.35;;;;;;;6.61;100.00;101564.91;5055547;28;20325;-77
2022/04/12 02:17:20;;;;;;;11.10;8.02;;;;;;;6.28;100.00;101569.72;5054280;28;20116;-76
2022/04/12 02:20:06;;;;;;;13.55;7.85;;;;;;;6.62;100.00;101577.06;5053811;28;20025;-77
2022/04/12 02:22:51;;;;;;;13.02;8.48;;;;;;;6.32;100.00;101574.09;5057193;28;20445;-76
2022/04/12 02:25:37;;;;;;;11.00;8.23;;;;;;;6.46;100.00;101569.94;5066728;28;20449;-78
2022/04/12 02:28:23;;;;;;;12.13;8.45;;;;;;;6.20;100.00;101561.81;5054878;28;20071;-77
2022/04/12 02:31:09;;;;;;;11.70;8.77;;;;;;;6.39;100.00;101565.53;5053483;28;20032;-77
2022/04/12 02:33:54;;;;;;;11.30;8.27;;;;;;;6.38;100.00;101569.00;5054270;28;20467;-77
2022/04/12 02:36:40;;;;;;;12.65;8.38;;;;;;;6.31;100.00;101565.41;5053959;28;20025;-77
2022/04/12 02:39:26;;;;;;;11.48;8.93;;;;;;;6.24;100.00;101573.13;5054433;28;20025;-76
2022/04/12 02:42:12;;;;;;;11.82;8.60;;;;;;;6.17;100.00;101577.38;5054328;28;20036;-77
2022/04/12 02:44:57;;;;;;;14.07;9.05;;;;;;;6.42;100.00;101574.22;5054566;28;20064;-76
2022/04/12 02:47:46;;;;;;;11.85;8.68;;;;;;;6.43;100.00;101578.56;5053923;28;20095;-78
2022/04/12 02:50:32;;;;;;;11.95;8.40;;;;;;;6.09;100.00;101568.59;5054997;28;20086;-76
2022/04/12 02:53:17;;;;;;;16.38;8.35;;;;;;;6.25;100.00;101569.66;5054061;28;20025;-75
2022/04/12 02:56:04;;;;;;;11.30;8.10;;;;;;;6.41;100.00;101566.41;5053278;28;20028;-76
2022/04/12 02:58:50;;;;;;;11.80;8.68;;;;;;;6.08;100.00;101568.56;5054107;28;20052;-77
2022/04/12 03:01:36;;;;;;;11.25;8.43;;;;;;;6.18;100.00;101567.84;5053534;28;20131;-77
2022/04/12 03:04:22;;;;;;;13.00;8.68;;;;;;;6.34;100.00;101564.59;5054579;28;20016;-76
2022/04/12 03:07:09;;;;;;;13.30;8.60;;;;;;;6.42;100.00;101574.22;5054634;28;20063;-77
2022/04/12 03:09:54;;;;;;;12.48;8.80;;;;;;;6.36;100.00;101576.78;5053821;28;20033;-77
2022/04/12 03:12:40;;;;;;;12.18;8.50;;;;;;;6.05;100.00;101578.91;5055127;28;20031;-76
2022/04/12 03:15:26;;;;;;;13.38;8.85;;;;;;;5.91;100.00;101583.06;5053341;28;20111;-77
2022/04/12 03:18:12;;;;;;;12.55;8.40;;;;;;;5.90;100.00;101579.56;5052070;28;20021;-76
2022/04/12 03:20:57;;;;;;;11.95;8.45;;;;;;;5.63;100.00;101581.72;5054380;28;20111;-76
2022/04/12 03:23:43;;;;;;;13.10;8.88;;;;;;;5.61;100.00;101587.72;5053238;28;20025;-77
2022/04/12 03:26:29;;;;;;;12.32;8.80;;;;;;;5.94;100.00;101583.09;5053716;28;20163;-78
2022/04/12 03:29:16;;;;;;;12.27;8.73;;;;;;;6.05;100.00;101586.72;5053806;28;20040;-77
2022/04/12 03:32:02;;;;;;;11.32;8.43;;;;;;;6.17;100.00;101581.69;5054198;28;20028;-77
2022/04/12 03:34:50;;;;;;;11.55;8.45;;;;;;;6.02;100.00;101591.91;5053240;28;20103;-78
2022/04/12 03:37:35;;;;;;;12.55;8.60;;;;;;;5.77;100.00;101593.19;5054033;28;20463;-77
2022/04/12 03:40:27;;;;;;;15.20;9.68;;;;;;;5.99;100.00;101592.69;5053726;28;20068;-78
2022/04/12 03:43:12;;;;;;;10.63;7.93;;;;;;;5.76;100.00;101593.19;5052992;28;20034;-77
2022/04/12 03:45:58;;;;;;;11.68;8.35;;;;;;;5.81;100.00;101601.94;5053314;28;20021;-76
2022/04/12 03:48:45;;;;;;;13.60;9.15;;;;;;;5.91;100.00;101596.06;5053598;28;20099;-76
2022/04/12 03:51:31;;;;;;;11.82;9.00;;;;;;;6.16;100.00;101604.25;5053420;28;20118;-77
2022/04/12 03:54:16;;;;;;;13.43;9.30;;;;;;;5.78;100.00;101610.53;5052801;28;20025;-77
2022/04/12 03:57:03;;;;;;;14.07;10.10;;;;;;;5.76;100.00;101612.25;5052975;28;20433;-77
2022/04/12 03:59:49;;;;;;;13.60;9.27;;;;;;;5.99;100.00;101616.09;5051982;28;20037;-76
2022/04/12 04:02:35;;;;;;;14.63;9.43;;;;;;;5.57;100.00;101609.31;5053825;28;20021;-76
2022/04/12 04:05:22;;;;;;;14.20;9.43;;;;;;;5.72;100.00;101610.47;5052510;28;20053;-78
2022/04/12 04:08:08;;;;;;;14.07;9.35;;;;;;;5.73;100.00;101603.50;5053639;28;20137;-76
2022/04/12 04:10:54;;;;;;;14.32;8.88;;;;;;;5.73;100.00;101613.91;5053899;28;20037;-77
2022/04/12 04:13:39;;;;;;;12.52;7.97;;;;;;;5.88;100.00;101616.81;5053289;28;20025;-77
2022/04/12 04:16:25;;;;;;;12.65;7.95;;;;;;;5.80;100.00;101616.66;5051786;28;20104;-77
2022/04/12 04:19:11;;;;;;;16.38;9.43;;;;;;;6.10;100.00;101618.91;5053482;28;20033;-77
2022/04/12 04:21:57;;;;;;;14.65;8.52;;;;;;;6.14;100.00;101618.94;5051766;28;20109;-77
2022/04/12 04:24:43;;;;;;;12.15;8.68;;;;;;;6.30;100.00;101620.06;5052992;28;20028;-77
2022/04/12 04:27:29;;;;;;;16.38;8.55;;;;;;;5.98;100.00;101618.72;5053312;28;20032;-77
2022/04/12 04:30:17;;;;;;;11.82;8.60;;;;;;;6.13;100.00;101627.63;5052506;28;20449;-78
2022/04/12 04:33:03;;;;;;;14.15;8.90;;;;;;;6.25;100.00;101625.19;5051332;28;20098;-76
2022/04/12 04:35:49;;;;;;;12.88;8.50;;;;;;;6.11;100.00;101639.72;5054059;28;20091;-75
2022/04/12 04:38:35;;;;;;;16.17;9.00;;;;;;;6.38;100.00;101642.72;5057235;28;20055;-77
2022/04/12 04:41:21;;;;;;;12.27;8.82;;;;;;;6.40;100.00;101641.03;5056082;28;20025;-77
2022/04/12 04:44:07;;;;;;;13.60;8.57;;;;;;;6.18;100.00;101641.56;5056307;28;20368;-78
2022/04/12 04:46:53;;;;;;;12.77;8.73;;;;;;;6.35;100.00;101640.06;5063787;28;20091;-75
2022/04/12 04:49:39;;;;;;;14.60;8.82;;;;;;;6.43;100.00;101645.41;5066913;28;20391;-77
2022/04/12 04:52:25;;;;;;;11.00;8.02;;;;;;;6.20;100.00;101639.88;5055797;28;20356;-76
2022/04/12 04:55:12;;;;;;;12.82;8.35;;;;;;;6.43;100.00;101650.59;5055599;28;20029;-77
2022/04/12 04:57:59;;;;;;;15.48;9.10;;;;;;;6.49;100.00;101648.06;5055816;28;20033;-77
2022/04/12 05:00:45;;;;;;;12.57;8.57;;;;;;;6.53;100.00;101648.16;5055314;28;20412;-76
2022/04/12 05:03:31;;;;;;;13.65;9.18;;;;;;;6.63;100.00;101655.22;5055996;28;20117;-76
2022/04/12 05:06:17;;;;;;;13.23;8.63;;;;;;;6.37;100.00;101658.31;5056737;28;20090;-76
2022/04/12 05:09:03;;;;;;;11.68;8.75;;;;;;;6.56;100.00;101657.72;5056376;28;20044;-76
2022/04/12 05:11:49;;;;;;;13.77;8.55;;;;;;;6.74;100.00;101663.16;5056806;28;20095;-75
2022/04/12 05:14:35;;;;;;;13.25;8.68;;;;;;;6.70;100.00;101663.97;5055629;28;20460;-77
2022/04/12 05:17:28;;;;;;;12.68;8.80;;;;;;;6.84;100.00;101667.66;5055654;28;20039;-77
2022/04/12 05:20:13;;;;;;;12.68;8.65;;;;;;;6.65;100.00;101660.44;5056677;28;20043;-77
2022/04/12 05:22:59;;;;;;;12.35;8.65;;;;;;;6.56;100.00;101655.13;5056642;28;20040;-76
2022/04/12 05:25:45;;;;;;;13.07;8.50;;;;;;;6.86;100.00;101665.91;5055270;28;20021;-77
2022/04/12 05:28:31;;;;;;;13.20;9.55;;;;;;;7.00;100.00;101659.16;5056580;28;20029;-76
2022/04/12 05:31:16;;;;;;;20.15;12.43;;;;;;;6.97;100.00;101667.81;5056376;28;20028;-76
2022/04/12 05:34:02;;;;;;;13.30;8.68;;;;;;;7.14;100.00;101657.56;5054934;28;20029;-75
2022/04/12 05:36:48;;;;;;;12.15;9.10;;;;;;;7.25;100.00;101666.41;5056239;28;20021;-77
2022/04/12 05:39:34;;;;;;;11.75;8.25;;;;;;;7.37;100.00;101657.00;5055891;28;20321;-77
2022/04/12 05:42:20;;;;;;;13.13;8.57;;;;;;;7.27;100.00;101662.09;5054904;28;20025;-76
2022/04/12 05:45:07;;;;;;;13.70;9.15;;;;;;;7.43;100.00;101666.63;5056013;28;20044;-77
2022/04/12 05:47:54;;;;;;;26.00;16.65;;;;;;;7.48;100.00;101657.09;5054093;28;20381;-77
2022/04/12 05:50:40;;;;;;;18.65;11.02;;;;;;;7.71;100.00;101658.16;5054188;28;20052;-77
2022/04/12 05:53:26;;;;;;;13.77;9.05;;;;;;;7.63;100.00;101663.31;5055463;28;20025;-77
2022/04/12 05:56:11;;;;;;;13.73;9.10;;;;;;;7.61;100.00;101661.56;5054130;28;20036;-73
2022/04/12 05:58:57;;;;;;;13.77;8.35;;;;;;;7.46;100.00;101670.09;5054713;28;20352;-77
2022/04/12 06:01:43;;;;;;;13.88;8.55;;;;;;;7.69;100.00;101666.00;5055266;28;20112;-77
2022/04/12 06:04:29;;;;;;;12.05;8.05;;;;;;;7.84;100.00;101660.91;5053820;28;20017;-76
2022/04/12 06:07:14;;;;;;;13.48;8.80;;;;;;;7.82;100.00;101669.56;5053648;28;20029;-74
2022/04/12 06:10:01;;;;;;;17.70;9.27;;;;;;;7.93;100.00;101674.03;5055883;28;20053;-75
2022/04/12 06:12:48;;;;;;;16.67;9.35;;;;;;;8.07;100.00;101675.00;5028770;28;20044;-75
2022/04/12 06:15:33;;;;;;;13.15;8.52;;;;;;;8.06;100.00;101677.59;5040477;28;20029;-75
2022/04/12 06:18:19;;;;;;;13.15;8.45;;;;;;;8.13;100.00;101682.03;5027817;28;20033;-75
2022/04/12 06:21:05;;;;;;;14.93;8.20;;;;;;;8.31;100.00;101684.78;5026586;28;20065;-75
2022/04/12 06:23:51;;;;;;;11.93;8.27;;;;;;;8.14;100.00;101676.81;5045342;28;20334;-75
2022/04/12 06:26:36;;;;;;;10.80;8.05;;;;;;;8.15;100.00;101691.59;5046703;28;20112;-75
2022/04/12 06:29:22;;;;;;;11.15;8.30;;;;;;;8.36;100.00;101697.00;5042181;28;20067;-75
2022/04/12 06:32:09;;;;;;;16.13;8.48;;;;;;;8.29;100.00;101692.63;5027958;28;20037;-76
2022/04/12 06:34:54;;;;;;;11.32;8.20;;;;;;;8.43;100.00;101695.31;5027306;28;20057;-76
2022/04/12 06:37:42;;;;;;;11.40;8.23;;;;;;;8.37;100.00;101700.50;5046763;28;20377;-75
2022/04/12 06:40:28;;;;;;;12.98;8.77;;;;;;;8.59;100.00;101705.00;5031951;28;20029;-76
2022/04/12 06:43:15;;;;;;;11.27;8.32;;;;;;;8.68;100.00;101700.72;5031106;28;20037;-76
2022/04/12 06:46:00;;;;;;;13.75;8.77;;;;;;;8.72;100.00;101705.09;5034001;28;20126;-75
2022/04/12 06:48:46;;;;;;;14.40;8.68;;;;;;;8.87;100.00;101699.94;5039107;28;20037;-75
2022/04/12 06:51:32;;;;;;;10.23;8.48;;;;;;;8.81;100.00;101701.66;5039613;28;20509;-75
2022/04/12 06:54:18;;;;;;;12.25;7.95;;;;;;;8.85;100.00;101711.25;5031534;28;20444;-73
2022/04/12 06:57:04;;;;;;;11.35;7.63;;;;;;;9.07;100.00;101702.66;5044733;28;20087;-75
2022/04/12 06:59:51;;;;;;;13.93;7.72;;;;;;;9.19;100.00;101706.19;5044172;28;20119;-75
2022/04/12 07:02:37;;;;;;;13.35;8.18;;;;;;;9.33;100.00;101706.25;5031824;28;20037;-75
2022/04/12 07:05:23;;;;;;;11.35;7.75;;;;;;;9.51;100.00;101706.28;5026249;28;20022;-75
2022/04/12 07:08:11;;;;;;;11.30;7.10;;;;;;;9.64;100.00;101706.31;5046404;28;20148;-75
2022/04/12 07:10:57;;;;;;;10.45;7.88;;;;;;;9.58;100.00;101700.22;5049172;28;20083;-75
2022/04/12 07:13:42;;;;;;;12.00;7.80;;;;;;;9.77;100.00;101704.63;5036026;28;20120;-75
2022/04/12 07:16:28;;;;;;;10.02;7.68;;;;;;;9.79;100.00;101701.13;5035531;28;20105;-74
2022/04/12 07:19:15;;;;;;;12.35;7.25;;;;;;;9.83;100.00;101709.84;5046293;28;20296;-75
2022/04/12 07:22:00;;;;;;;10.02;6.95;;;;;;;10.07;100.00;101704.66;5035781;28;20035;-75
2022/04/12 07:24:46;;;;;;;9.75;6.70;;;;;;;10.40;100.00;101707.25;5027004;28;20033;-74
2022/04/12 07:27:36;;;;;;;10.13;6.78;;;;;;;10.37;100.00;101702.00;5030583;28;20043;-76
2022/04/12 07:30:22;;;;;;;9.88;6.35;;;;;;;10.70;100.00;101703.72;5026416;28;20036;-75
2022/04/12 07:33:08;;;;;;;11.68;7.45;;;;;;;10.69;100.00;101700.22;5024071;28;20112;-76
2022/04/12 07:35:54;;;;;;;9.63;6.80;;;;;;;10.72;100.00;101696.75;5045761;28;20052;-76
2022/04/12 07:38:39;;;;;;;15.35;7.57;;;;;;;10.93;100.00;101705.38;5035514;28;20033;-76
2022/04/12 07:41:25;;;;;;;10.70;6.68;;;;;;;10.96;100.00;101702.75;5033625;28;20033;-75
2022/04/12 07:44:11;;;;;;;9.00;6.40;;;;;;;11.01;100.00;101701.00;5025180;28;20044;-75
2022/04/12 07:46:57;;;;;;;11.00;7.03;;;;;;;11.34;100.00;101700.00;5027277;28;20045;-74
2022/04/12 07:49:43;;;;;;;10.07;6.90;;;;;;;11.12;100.00;101701.84;5031986;28;20102;-75
2022/04/12 07:52:29;;;;;;;24.55;15.98;;;;;;;11.65;100.00;101702.47;5041406;28;20021;-73
2022/04/12 07:55:14;;;;;;;12.82;7.10;;;;;;;11.75;100.00;101698.03;5052160;28;20041;-75
2022/04/12 07:58:00;;;;;;;9.75;7.28;;;;;;;12.04;100.00;101696.94;5034781;28;20458;-75
2022/04/12 08:00:46;;;;;;;12.07;8.32;;;;;;;12.17;100.00;101693.31;5045401;28;20052;-74
2022/04/12 08:03:32;;;;;;;9.02;7.20;;;;;;;12.14;100.00;101692.47;5025689;28;20037;-75
2022/04/12 08:06:18;;;;;;;10.90;7.32;;;;;;;12.10;100.00;101701.28;5037023;28;20033;-75
2022/04/12 08:09:03;;;;;;;9.82;6.93;;;;;;;12.03;100.00;101696.94;5043839;28;20119;-74
2022/04/12 08:11:49;;;;;;;8.93;6.95;;;;;;;12.23;100.00;101692.41;5047980;28;20154;-76
2022/04/12 08:14:35;;;;;;;9.00;6.85;;;;;;;12.62;100.00;101700.78;5047388;28;20029;-75
2022/04/12 08:17:21;;;;;;;10.63;7.05;;;;;;;12.64;97.26;101698.13;5049436;28;20067;-73
2022/04/12 08:20:09;;;;;;;8.93;6.47;;;;;;;13.19;96.47;101700.13;5049418;28;20040;-74
2022/04/12 08:22:56;;;;;;;10.23;6.50;;;;;;;12.91;94.59;101695.22;5044977;28;20052;-75
2022/04/12 08:25:42;;;;;;;9.48;6.78;;;;;;;13.48;92.18;101691.88;5041958;28;20037;-75
2022/04/12 08:28:28;;;;;;;7.53;6.45;;;;;;;13.24;88.99;101689.56;5046881;28;20491;-74
2022/04/12 08:31:14;;;;;;;8.65;6.60;;;;;;;13.72;88.86;101688.88;5048670;28;20052;-74
2022/04/12 08:34:02;;;;;;;12.05;6.88;;;;;;;13.86;88.20;101684.28;5046595;28;20029;-76
2022/04/12 08:36:48;;;;;;;10.63;6.78;;;;;;;14.05;82.39;101691.00;5041597;28;20093;-74
2022/04/12 08:39:34;;;;;;;7.78;6.32;;;;;;;14.35;81.56;101694.03;5042377;28;20091;-72
2022/04/12 08:42:21;;;;;;;10.93;5.90;;;;;;;13.92;84.88;101687.72;5048097;28;20029;-74
2022/04/12 08:45:07;;;;;;;8.23;5.68;;;;;;;14.02;75.80;101686.66;5047571;28;20033;-72
2022/04/12 08:47:53;;;;;;;7.72;5.75;;;;;;;14.45;76.54;101682.44;5049034;28;20114;-74
2022/04/12 08:50:39;;;;;;;6.82;5.38;;;;;;;14.90;71.08;101677.19;5047646;28;20033;-73
2022/04/12 08:53:26;;;;;;;6.13;5.53;;;;;;;14.79;68.97;101669.47;5037458;28;20041;-73
2022/04/12 08:56:12;;;;;;;9.60;5.75;;;;;;;14.65;68.22;101674.13;5048538;28;20036;-73
2022/04/12 08:58:58;;;;;;;7.55;5.00;;;;;;;14.82;68.46;101663.28;5037159;28;20106;-77
2022/04/12 09:01:46;;;;;;;7.50;5.43;;;;;;;14.90;68.63;101654.28;5048253;28;20040;-74
2022/04/12 09:04:33;;;;;;;8.80;4.97;;;;;;;14.39;69.87;101650.88;5046198;28;20028;-72
2022/04/12 09:07:25;;;;;;;7.43;5.10;;;;;;;14.47;68.44;101653.41;5029072;28;20107;-75
2022/04/12 09:10:11;;;;;;;5.20;4.15;;;;;;;14.55;65.36;101648.84;5047568;28;20040;-74
2022/04/12 09:13:11;;;;;;;7.15;4.35;;;;;;;14.93;61.24;101653.34;5047056;28;20096;-74
2022/04/12 09:15:59;;;;;;;5.63;4.30;;;;;;;14.91;61.61;101637.56;5048219;28;20108;-74
2022/04/12 09:18:45;;;;;;;7.10;4.30;;;;;;;14.88;61.55;101639.38;5046975;28;20378;-74
2022/04/12 09:21:31;;;;;;;5.45;3.60;;;;;;;15.25;53.90;101632.44;5047281;28;20171;-74
2022/04/12 09:24:21;;;;;;;11.70;3.42;;;;;;;15.59;52.02;101621.09;5045079;28;20033;-74
2022/04/12 09:27:12;;;;;;;5.90;3.75;;;;;;;14.69;52.68;101625.69;5047729;28;20025;-74
2022/04/12 09:30:05;;;;;;;6.20;4.22;;;;;;;14.62;54.63;101624.06;5035426;28;20021;-74
2022/04/12 09:32:52;;;;;;;4.25;2.83;;;;;;;14.56;51.02;101625.06;5047485;28;20056;-73
2022/04/12 09:35:38;;;;;;;6.07;3.53;;;;;;;14.28;49.16;101623.84;5046719;28;20037;-73
2022/04/12 09:38:32;;;;;;;7.35;4.30;;;;;;;14.36;50.76;101621.94;5046987;28;20130;-74
2022/04/12 09:41:23;;;;;;;4.13;3.40;;;;;;;14.48;51.94;101615.56;5046670;28;20084;-74
2022/04/12 09:44:11;;;;;;;5.95;3.50;;;;;;;14.94;52.94;101621.66;5045317;28;20055;-74
2022/04/12 09:46:57;;;;;;;4.05;2.92;;;;;;;15.08;51.70;101611.69;5046290;28;20063;-73
2022/04/12 09:49:45;;;;;;;4.90;3.42;;;;;;;14.43;50.52;101609.53;5044346;28;20048;-73
2022/04/12 09:52:30;;;;;;;6.25;2.97;;;;;;;13.83;52.27;101616.69;5043821;28;20035;-73
2022/04/12 09:55:30;;;;;;;4.95;2.70;;;;;;;14.01;52.77;101611.13;5047217;28;20043;-74
2022/04/12 09:58:21;;;;;;;4.43;2.97;;;;;;;14.97;50.70;101600.50;5046237;28;20049;-74
2022/04/12 10:01:10;;;;;;;5.15;2.72;;;;;;;14.16;53.42;101604.72;5046949;28;20029;-73
2022/04/12 10:03:58;;;;;;;3.05;2.45;;;;;;;14.05;51.70;101610.19;5043992;28;20091;-74
2022/04/12 10:06:46;;;;;;;3.03;2.40;;;;;;;13.89;50.58;101611.34;5046321;28;20038;-73
2022/04/12 10:09:36;;;;;;;5.43;2.70;;;;;;;14.72;50.19;101599.28;5028084;28;20025;-73
2022/04/12 10:12:23;;;;;;;4.43;2.53;;;;;;;14.72;48.38;101591.34;5043402;28;20033;-74
2022/04/12 10:15:09;;;;;;;5.57;2.72;;;;;;;14.68;48.13;101595.81;5046716;28;20029;-75
2022/04/12 10:17:56;;;;;;;4.45;2.70;;;;;;;14.15;48.00;101601.22;5047648;28;20025;-73
2022/04/12 10:20:43;;;;;;;4.78;2.40;;;;;;;14.40;47.65;101591.13;5045166;28;20452;-75
2022/04/12 10:23:29;;;;;;;3.13;2.30;;;;;;;14.93;46.87;101583.00;5044384;28;20029;-73
2022/04/12 10:26:20;;;;;;;3.88;2.50;;;;;;;15.29;43.94;101594.50;5028824;28;20029;-73
2022/04/12 10:29:06;;;;;;;5.40;3.28;;;;;;;14.84;45.03;101586.69;5046430;28;20143;-73
2022/04/12 10:31:57;;;;;;;8.93;2.50;;;;;;;15.06;45.72;101595.00;5046666;28;20427;-74
2022/04/12 10:35:00;;;;;;;4.35;2.28;;;;;;;14.77;45.58;101585.09;5044066;28;20029;-74
2022/04/12 10:37:46;;;;;;;5.30;2.60;;;;;;;14.53;46.79;101592.63;5045516;28;21184;-75
2022/04/12 10:40:34;;;;;;;4.38;2.42;;;;;;;14.32;45.43;101587.75;5026871;28;20033;-74
2022/04/12 10:43:30;;;;;;;4.20;2.53;;;;;;;14.24;45.93;101590.53;5045203;28;20041;-74
2022/04/12 10:46:17;;;;;;;4.85;2.42;;;;;;;14.44;46.27;101585.75;5046974;28;20060;-75
2022/04/12 10:49:06;;;;;;;4.85;2.47;;;;;;;14.44;45.34;101590.16;5039175;28;20033;-74
2022/04/12 10:51:59;;;;;;;4.90;2.70;;;;;;;15.07;42.99;101570.34;5047152;28;20108;-73
2022/04/12 10:54:48;;;;;;;4.13;2.30;;;;;;;15.71;42.55;101586.47;5045109;28;20074;-75
2022/04/12 10:57:34;;;;;;;4.38;2.53;;;;;;;15.50;43.62;101588.75;5044366;28;20065;-73
2022/04/12 11:00:22;;;;;;;5.95;3.00;;;;;;;15.76;43.35;101589.00;5039420;28;20433;-73
2022/04/12 11:03:08;;;;;;;3.25;2.28;;;;;;;15.89;42.94;101585.13;5029713;28;20064;-74
2022/04/12 11:05:55;;;;;;;3.70;2.38;;;;;;;15.46;42.82;101584.44;5045372;28;20140;-74
2022/04/12 11:08:43;;;;;;;3.85;2.25;;;;;;;15.26;43.16;101576.94;5045772;28;20097;-73
2022/04/12 11:11:40;;;;;;;4.50;2.55;;;;;;;14.58;45.13;101577.56;5031074;28;20029;-74
2022/04/12 11:14:38;;;;;;;4.68;2.40;;;;;;;14.22;45.39;101565.09;5045127;28;20456;-72
2022/04/12 11:17:29;;;;;;;7.05;2.30;;;;;;;15.19;43.87;101562.16;5046065;28;20476;-74
2022/04/12 11:20:22;;;;;;;2.50;1.88;;;;;;;15.63;40.41;101558.50;5039879;28;20057;-73
2022/04/12 11:23:11;;;;;;;4.32;1.73;;;;;;;15.92;38.67;101554.22;5034494;28;20381;-73
2022/04/12 11:26:26;;;;;;;4.43;2.00;;;;;;;15.97;38.21;101557.59;5042336;28;20469;-73
2022/04/12 11:29:23;;;;;;;2.60;1.90;;;;;;;16.25;37.00;101548.03;5044418;28;20041;-72
2022/04/12 11:32:10;;;;;;;3.63;2.10;;;;;;;16.27;37.11;101546.19;5044697;28;20104;-74
2022/04/12 11:34:56;;;;;;;3.47;1.80;;;;;;;16.51;37.46;101539.41;5044788;28;20036;-72
2022/04/12 11:37:44;;;;;;;4.25;1.90;;;;;;;16.73;37.53;101535.22;5045935;28;20037;-73
2022/04/12 11:40:30;;;;;;;3.75;2.70;;;;;;;16.98;38.36;101533.56;5032409;28;20410;-74
2022/04/12 11:43:20;;;;;;;6.15;3.53;;;;;;;16.61;37.75;101524.97;5024921;28;20037;-75
2022/04/12 11:46:06;;;;;;;4.53;2.90;;;;;;;16.07;37.96;101540.59;5035371;28;20417;-74
2022/04/12 11:49:02;;;;;;;2.50;1.90;;;;;;;16.47;37.59;101530.66;5049991;28;20526;-74
2022/04/12 11:51:48;;;;;;;3.42;1.75;;;;;;;16.30;37.24;101527.59;5034821;28;20053;-74
2022/04/12 11:54:44;;;;;;;2.50;1.77;;;;;;;16.17;37.57;101523.56;5049182;28;20032;-75
2022/04/12 11:57:33;;;;;;;3.03;1.83;;;;;;;16.26;38.62;101517.16;5040728;28;20021;-75
2022/04/12 12:00:18;;;;;;;2.08;1.83;;;;;;;16.41;38.68;101516.75;5044637;28;20036;-75
2022/04/12 12:03:05;;;;;;;2.78;1.50;;;;;;;16.32;36.22;101523.13;5032915;28;20060;-77
2022/04/12 12:05:51;;;;;;;2.20;1.75;;;;;;;16.78;35.38;101518.28;5034353;28;20033;-76
2022/04/12 12:08:36;;;;;;;3.83;1.67;;;;;;;16.71;35.42;101514.06;5038380;28;20450;-76
2022/04/12 12:11:23;;;;;;;2.47;1.73;;;;;;;16.13;36.27;101515.75;5044583;28;20061;-75
2022/04/12 12:14:11;;;;;;;3.70;1.90;;;;;;;15.76;36.70;101525.59;5043871;28;20025;-75
2022/04/12 12:17:09;;;;;;;3.22;1.80;;;;;;;15.69;35.92;101516.06;5039281;28;20052;-76
2022/04/12 12:19:55;;;;;;;2.78;1.50;;;;;;;15.65;35.92;101512.66;5027862;28;20025;-75
2022/04/12 12:22:43;;;;;;;3.72;2.40;;;;;;;15.57;36.67;101513.75;5037538;28;20124;-73
2022/04/12 12:25:47;;;;;;;2.33;1.88;;;;;;;15.44;37.76;101514.94;5044251;28;20407;-76
2022/04/12 12:28:40;;;;;;;6.35;2.20;;;;;;;15.65;38.12;101512.66;5031194;28;20037;-74
2022/04/12 12:31:26;;;;;;;3.72;2.10;;;;;;;15.54;36.79;101513.81;5031071;28;20030;-74
2022/04/12 12:34:31;;;;;;;2.65;2.00;;;;;;;15.48;36.87;101504.28;5038057;28;20428;-75
2022/04/12 12:37:16;;;;;;;4.63;2.10;;;;;;;15.25;37.62;101501.31;5029138;28;20025;-75
2022/04/12 12:40:23;;;;;;;3.03;1.95;;;;;;;15.38;37.54;101507.19;5040738;28;20025;-75
2022/04/12 12:43:13;;;;;;;3.58;3.05;;;;;;;16.17;36.81;101488.31;5038187;28;20017;-75
2022/04/12 12:46:06;;;;;;;3.88;2.58;;;;;;;16.72;35.42;101492.00;5035903;28;20096;-75
2022/04/12 12:49:13;;;;;;;4.43;2.10;;;;;;;16.59;34.90;101495.91;5038495;28;20437;-75
2022/04/12 12:52:02;;;;;;;3.10;2.05;;;;;;;16.72;34.43;101499.09;5041231;28;20025;-76
2022/04/12 12:54:55;;;;;;;3.70;2.33;;;;;;;16.62;34.04;101487.03;5040263;28;20090;-76
2022/04/12 12:57:49;;;;;;;3.38;2.33;;;;;;;16.90;34.16;101477.31;5040182;28;20045;-75